createdAt,value
2022-08-02T00:02:56.091Z,99721.00
2022-08-02T00:05:59.791Z,99721.66
2022-08-02T00:09:03.879Z,99710.94
2022-08-02T00:12:07.437Z,99704.56
2022-08-02T00:15:10.949Z,99704.44
2022-08-02T00:18:19.148Z,99712.56
2022-08-02T00:21:21.844Z,99712.88
2022-08-02T00:24:31.123Z,99708.72
2022-08-02T00:27:34.003Z,99705.97
2022-08-02T00:30:37.639Z,99704.19
2022-08-02T00:34:26.362Z,99702.66
2022-08-02T00:37:03.244Z,99702.97
2022-08-02T00:40:06.437Z,99708.41
2022-08-02T00:43:12.035Z,99697.38
2022-08-02T00:46:15.859Z,99699.97
2022-08-02T00:49:19.224Z,99706.69
2022-08-02T00:52:24.767Z,99713.59
2022-08-02T00:55:31.412Z,99708.53
2022-08-02T00:58:34.255Z,99702.47
2022-08-02T01:01:56.654Z,99696.72
2022-08-02T01:05:00.405Z,99699.97
2022-08-02T01:08:04.048Z,99697.34
2022-08-02T01:11:07.393Z,99691.84
2022-08-02T01:14:13.003Z,99711.84
2022-08-02T01:17:25.844Z,99702.75
2022-08-02T01:20:47.792Z,99702.41
2022-08-02T01:24:02.308Z,99712.91
2022-08-02T01:27:32.808Z,99714.03
2022-08-02T01:30:36.363Z,99721.50
2022-08-02T01:33:44.960Z,99722.25
2022-08-02T01:36:52.932Z,99724.06
2022-08-02T01:39:58.523Z,99739.00
2022-08-02T01:43:02.054Z,99736.78
2022-08-02T01:46:08.555Z,99744.34
2022-08-02T01:49:16.448Z,99746.81
2022-08-02T01:52:25.590Z,99753.75
2022-08-02T01:55:57.601Z,99748.75
2022-08-02T01:59:03.680Z,99757.47
2022-08-02T02:02:08.603Z,99751.63
2022-08-02T02:05:14.730Z,99746.41
2022-08-02T02:08:27.300Z,99759.63
2022-08-02T02:12:05.275Z,99756.44
2022-08-02T02:14:56.029Z,99768.78
2022-08-02T02:18:12.667Z,99772.03
2022-08-02T02:21:16.804Z,99776.94
2022-08-02T02:24:19.885Z,99783.62
2022-08-02T02:27:24.899Z,99785.75
2022-08-02T02:30:29.076Z,99790.97
2022-08-02T02:33:33.823Z,99776.56
2022-08-02T02:36:39.801Z,99777.25
2022-08-02T02:39:44.213Z,99774.09
2022-08-02T02:42:49.664Z,99763.97
2022-08-02T02:45:53.558Z,99767.06
2022-08-02T02:48:57.295Z,99766.25
2022-08-02T02:52:00.452Z,99759.41
2022-08-02T02:55:03.827Z,99757.72
2022-08-02T02:58:07.135Z,99767.88
2022-08-02T03:01:55.523Z,99766.97
2022-08-02T03:04:57.295Z,99767.66
2022-08-02T03:08:01.776Z,99762.91
2022-08-02T03:11:04.622Z,99758.78
2022-08-02T03:14:12.634Z,99766.53
2022-08-02T03:17:16.624Z,99756.31
2022-08-02T03:20:20.705Z,99751.22
2022-08-02T03:23:23.364Z,99748.16
2022-08-02T03:26:26.359Z,99748.56
2022-08-02T03:29:34.027Z,99750.31
2022-08-02T03:32:39.246Z,99757.06
2022-08-02T03:35:43.239Z,99777.66
2022-08-02T03:38:46.602Z,99780.25
2022-08-02T03:41:49.832Z,99786.59
2022-08-02T03:44:53.834Z,99796.56
2022-08-02T03:47:58.800Z,99783.28
2022-08-02T03:51:02.542Z,99797.50
2022-08-02T03:54:05.620Z,99788.69
2022-08-02T03:57:10.302Z,99783.97
2022-08-02T04:00:19.124Z,99787.84
2022-08-02T04:03:22.217Z,99781.00
2022-08-02T04:06:28.491Z,99781.78
2022-08-02T04:09:31.701Z,99791.88
2022-08-02T04:12:34.727Z,99788.72
2022-08-02T04:15:38.709Z,99788.31
2022-08-02T04:18:46.665Z,99792.66
2022-08-02T04:21:52.587Z,99804.25
2022-08-02T04:24:59.497Z,99806.16
2022-08-02T04:28:16.500Z,99812.28
2022-08-02T04:31:20.833Z,99810.16
2022-08-02T04:34:24.023Z,99817.63
2022-08-02T04:37:27.451Z,99812.81
2022-08-02T04:40:30.524Z,99818.19
2022-08-02T04:43:33.238Z,99819.47
2022-08-02T04:46:37.029Z,99816.19
2022-08-02T04:49:40.747Z,99825.66
2022-08-02T04:52:45.914Z,99827.03
2022-08-02T04:55:48.852Z,99819.16
2022-08-02T04:58:52.895Z,99810.13
2022-08-02T05:01:55.570Z,99806.16
2022-08-02T05:04:58.574Z,99812.38
2022-08-02T05:08:01.490Z,99820.06
2022-08-02T05:11:04.523Z,99826.22
2022-08-02T05:14:07.209Z,99835.09
2022-08-02T05:17:10.264Z,99836.31
2022-08-02T05:20:16.355Z,99830.88
2022-08-02T05:23:19.392Z,99824.22
2022-08-02T05:26:22.200Z,99827.72
2022-08-02T05:29:25.211Z,99839.03
2022-08-02T05:32:28.758Z,99838.69
2022-08-02T05:35:31.918Z,99853.81
2022-08-02T05:38:37.134Z,99852.38
2022-08-02T05:41:41.362Z,99857.84
2022-08-02T05:44:44.009Z,99860.41
2022-08-02T05:47:47.037Z,99857.88
2022-08-02T05:50:55.472Z,99871.66
2022-08-02T05:54:16.309Z,99868.25
2022-08-02T05:57:44.552Z,99879.50
2022-08-02T06:00:50.212Z,99882.28
2022-08-02T06:03:56.973Z,99881.59
2022-08-02T06:07:02.879Z,99878.72
2022-08-02T06:10:07.086Z,99875.09
2022-08-02T06:13:14.893Z,99883.59
2022-08-02T06:16:31.706Z,99892.63
2022-08-02T06:19:51.368Z,99883.12
2022-08-02T06:22:57.502Z,99892.09
2022-08-02T06:26:02.202Z,99888.78
2022-08-02T06:29:05.568Z,99897.84
2022-08-02T06:32:09.122Z,99901.63
2022-08-02T06:35:13.376Z,99890.28
2022-08-02T06:38:23.044Z,99898.22
2022-08-02T06:41:26.468Z,99902.59
2022-08-02T06:44:50.682Z,99905.12
2022-08-02T06:47:54.469Z,99908.44
2022-08-02T06:50:57.168Z,99904.66
2022-08-02T06:54:00.201Z,99907.50
2022-08-02T06:57:02.827Z,99893.41
2022-08-02T07:00:09.715Z,99901.94
2022-08-02T07:03:13.751Z,99901.19
2022-08-02T07:06:16.810Z,99899.94
2022-08-02T07:09:21.882Z,99896.75
2022-08-02T07:12:26.672Z,99897.31
2022-08-02T07:15:29.390Z,99883.44
2022-08-02T07:18:32.632Z,99890.59
2022-08-02T07:21:56.319Z,99892.16
2022-08-02T07:24:59.988Z,99890.00
2022-08-02T07:28:02.686Z,99890.75
2022-08-02T07:31:06.132Z,99893.53
2022-08-02T07:34:09.998Z,99875.69
2022-08-02T07:37:35.327Z,99892.31
2022-08-02T07:40:35.790Z,99885.97
2022-08-02T07:43:38.797Z,99884.53
2022-08-02T07:46:42.415Z,99886.31
2022-08-02T07:49:45.481Z,99886.47
2022-08-02T07:52:48.636Z,99886.28
2022-08-02T07:55:51.593Z,99887.53
2022-08-02T07:58:55.054Z,99890.22
2022-08-02T08:01:58.053Z,99893.63
2022-08-02T08:05:02.413Z,99887.59
2022-08-02T08:08:06.219Z,99892.06
2022-08-02T08:11:09.765Z,99894.06
2022-08-02T08:14:16.637Z,99884.03
2022-08-02T08:17:19.982Z,99890.94
2022-08-02T08:20:23.265Z,99898.81
2022-08-02T08:23:26.308Z,99896.63
2022-08-02T08:26:28.981Z,99899.88
2022-08-02T08:29:32.193Z,99892.03
2022-08-02T08:32:34.932Z,99900.03
2022-08-02T08:35:38.772Z,99899.25
2022-08-02T08:38:41.421Z,99903.03
2022-08-02T08:41:44.632Z,99902.84
2022-08-02T08:44:48.598Z,99906.91
2022-08-02T08:48:00.474Z,99904.47
2022-08-02T08:51:16.753Z,99907.91
2022-08-02T08:54:20.037Z,99911.25
2022-08-02T08:57:22.943Z,99909.28
2022-08-02T09:00:26.518Z,99928.16
2022-08-02T09:03:29.343Z,99918.84
2022-08-02T09:06:39.754Z,99918.44
2022-08-02T09:09:42.591Z,99922.69
2022-08-02T09:12:45.630Z,99924.87
2022-08-02T09:15:56.887Z,99935.22
2022-08-02T09:19:01.855Z,99932.31
2022-08-02T09:22:09.921Z,99928.81
2022-08-02T09:25:17.044Z,99927.53
2022-08-02T09:28:19.788Z,99922.97
2022-08-02T09:31:24.595Z,99936.59
2022-08-02T09:34:43.940Z,99925.87
2022-08-02T09:37:48.755Z,99920.50
2022-08-02T09:40:51.478Z,99925.69
2022-08-02T09:44:04.835Z,99926.69
2022-08-02T09:47:16.884Z,99927.88
2022-08-02T09:50:19.939Z,99910.88
2022-08-02T09:53:23.707Z,99913.56
2022-08-02T09:56:35.134Z,99918.06
2022-08-02T09:59:38.670Z,99914.16
2022-08-02T10:03:07.531Z,99907.69
2022-08-02T10:06:10.490Z,99909.72
2022-08-02T10:09:14.228Z,99908.44
2022-08-02T10:12:17.516Z,99909.56
2022-08-02T10:15:24.533Z,99901.03
2022-08-02T10:18:45.347Z,99897.75
2022-08-02T10:22:02.810Z,99916.97
2022-08-02T10:25:07.075Z,99885.34
2022-08-02T10:28:13.948Z,99894.53
2022-08-02T10:31:22.873Z,99896.56
2022-08-02T10:34:51.252Z,99885.56
2022-08-02T10:38:01.797Z,99890.25
2022-08-02T10:41:04.594Z,99889.31
2022-08-02T10:44:07.645Z,99879.81
2022-08-02T10:47:27.563Z,99886.59
2022-08-02T10:50:45.872Z,99888.41
2022-08-02T10:54:08.498Z,99888.88
2022-08-02T10:57:25.322Z,99875.94
2022-08-02T11:00:28.082Z,99887.94
2022-08-02T11:03:41.307Z,99877.34
2022-08-02T11:07:08.971Z,99871.63
2022-08-02T11:10:34.812Z,99872.37
2022-08-02T11:14:04.520Z,99871.84
2022-08-02T11:17:17.103Z,99866.38
2022-08-02T11:20:21.869Z,99865.28
2022-08-02T11:23:44.243Z,99868.84
2022-08-02T11:26:48.254Z,99861.38
2022-08-02T11:29:51.464Z,99858.09
2022-08-02T11:32:58.822Z,99853.66
2022-08-02T11:36:04.447Z,99853.31
2022-08-02T11:39:15.846Z,99849.00
2022-08-02T11:42:19.067Z,99849.69
2022-08-02T11:45:29.249Z,99853.84
2022-08-02T11:48:38.829Z,99849.81
2022-08-02T11:51:54.114Z,99845.19
2022-08-02T11:54:57.863Z,99837.69
2022-08-02T11:58:04.161Z,99851.72
2022-08-02T12:01:08.305Z,99852.09
2022-08-02T12:04:12.556Z,99850.00
2022-08-02T12:07:15.430Z,99841.91
2022-08-02T12:10:20.644Z,99851.13
2022-08-02T12:13:23.479Z,99836.13
2022-08-02T12:16:57.409Z,99835.06
2022-08-02T12:20:00.211Z,99842.50
2022-08-02T12:23:04.146Z,99842.09
2022-08-02T12:26:09.661Z,99834.44
2022-08-02T12:29:58.122Z,99840.06
2022-08-02T12:33:13.091Z,99841.37
2022-08-02T12:36:20.292Z,99839.19
2022-08-02T12:39:43.457Z,99828.03
2022-08-02T12:42:57.758Z,99836.94
2022-08-02T12:46:01.568Z,99838.12
2022-08-02T12:49:19.035Z,99828.00
2022-08-02T12:52:24.122Z,99819.38
2022-08-02T12:56:00.049Z,99829.03
2022-08-02T12:58:51.738Z,99830.16
2022-08-02T13:01:54.878Z,99817.16
2022-08-02T13:04:59.959Z,99814.81
2022-08-02T13:08:04.040Z,99821.88
2022-08-02T13:11:06.822Z,99817.13
2022-08-02T13:14:09.870Z,99822.94
2022-08-02T13:17:12.824Z,99822.19
2022-08-02T13:20:15.978Z,99819.09
2022-08-02T13:23:21.704Z,99815.47
2022-08-02T13:26:31.228Z,99814.53
2022-08-02T13:29:34.292Z,99803.09
2022-08-02T13:32:37.641Z,99811.72
2022-08-02T13:35:40.530Z,99814.03
2022-08-02T13:38:43.782Z,99803.84
2022-08-02T13:41:46.867Z,99803.91
2022-08-02T13:44:50.806Z,99803.37
2022-08-02T13:48:03.432Z,99798.03
2022-08-02T13:51:12.133Z,99816.53
2022-08-02T13:54:17.901Z,99803.97
2022-08-02T13:57:21.104Z,99794.16
2022-08-02T14:00:35.267Z,99792.31
2022-08-02T14:04:07.687Z,99792.09
2022-08-02T14:07:01.941Z,99789.03
2022-08-02T14:10:06.879Z,99791.00
2022-08-02T14:13:09.717Z,99774.75
2022-08-02T14:16:12.825Z,99777.78
2022-08-02T14:19:17.327Z,99770.72
2022-08-02T14:22:20.627Z,99773.28
2022-08-02T14:25:23.237Z,99768.56
2022-08-02T14:28:26.196Z,99768.31
2022-08-02T14:31:29.860Z,99775.50
2022-08-02T14:34:33.122Z,99782.63
2022-08-02T14:37:35.984Z,99779.87
2022-08-02T14:40:39.242Z,99773.03
2022-08-02T14:44:00.830Z,99775.84
2022-08-02T14:47:05.941Z,99776.09
2022-08-02T14:50:09.180Z,99779.28
2022-08-02T14:53:13.229Z,99763.13
2022-08-02T14:56:16.183Z,99766.81
2022-08-02T14:59:19.285Z,99758.09
2022-08-02T15:02:22.165Z,99772.69
2022-08-02T15:05:25.157Z,99777.59
2022-08-02T15:08:27.846Z,99756.47
2022-08-02T15:11:32.122Z,99765.06
2022-08-02T15:14:51.323Z,99768.03
2022-08-02T15:17:54.391Z,99760.62
2022-08-02T15:20:57.803Z,99748.97
2022-08-02T15:24:00.914Z,99763.19
2022-08-02T15:27:04.277Z,99763.69
2022-08-02T15:30:09.049Z,99760.06
2022-08-02T15:33:12.287Z,99747.16
2022-08-02T15:36:16.022Z,99753.34
2022-08-02T15:39:18.845Z,99756.44
2022-08-02T15:42:30.642Z,99750.44
2022-08-02T15:45:35.940Z,99747.75
2022-08-02T15:48:40.431Z,99744.69
2022-08-02T15:51:43.178Z,99747.81
2022-08-02T15:54:47.046Z,99745.22
2022-08-02T15:57:49.725Z,99748.75
2022-08-02T16:00:53.165Z,99741.31
2022-08-02T16:03:56.693Z,99743.69
2022-08-02T16:07:01.401Z,99754.41
2022-08-02T16:10:06.854Z,99743.91
2022-08-02T16:13:28.783Z,99755.00
2022-08-02T16:16:33.985Z,99754.47
2022-08-02T16:19:48.395Z,99746.25
2022-08-02T16:22:52.434Z,99750.59
2022-08-02T16:25:55.253Z,99751.19
2022-08-02T16:29:01.175Z,99752.97
2022-08-02T16:32:04.876Z,99758.25
2022-08-02T16:35:09.335Z,99756.66
2022-08-02T16:38:12.230Z,99756.38
2022-08-02T16:44:38.695Z,99762.63
2022-08-02T16:48:03.222Z,99764.59
2022-08-02T16:51:13.600Z,99757.94
2022-08-02T16:54:17.174Z,99765.00
2022-08-02T16:57:22.038Z,99760.47
2022-08-02T17:00:25.377Z,99755.66
2022-08-02T17:03:55.524Z,99762.44
2022-08-02T17:06:52.270Z,99765.16
2022-08-02T17:10:02.018Z,99763.63
2022-08-02T17:13:11.218Z,99763.56
2022-08-02T17:16:20.778Z,99756.44
2022-08-02T17:19:29.243Z,99768.53
2022-08-02T17:22:41.245Z,99766.13
2022-08-02T17:25:50.272Z,99761.31
2022-08-02T17:29:15.726Z,99764.87
2022-08-02T17:32:19.155Z,99772.66
2022-08-02T17:35:22.147Z,99778.38
2022-08-02T17:38:27.391Z,99777.19
2022-08-02T17:41:37.799Z,99778.94
2022-08-02T17:44:42.495Z,99778.06
2022-08-02T17:48:04.722Z,99768.09
2022-08-02T17:51:08.540Z,99792.94
2022-08-02T17:54:14.275Z,99792.06
2022-08-02T17:57:21.825Z,99793.88
2022-08-02T18:00:26.863Z,99799.91
2022-08-02T18:03:29.911Z,99804.47
2022-08-02T18:06:33.666Z,99806.50
2022-08-02T18:09:36.827Z,99796.59
2022-08-02T18:12:40.459Z,99795.63
2022-08-02T18:15:45.527Z,99809.28
2022-08-02T18:18:48.748Z,99809.75
2022-08-02T18:21:53.496Z,99814.88
2022-08-02T18:24:56.355Z,99824.31
2022-08-02T18:28:00.581Z,99822.66
2022-08-02T18:31:09.953Z,99830.31
2022-08-02T18:34:25.280Z,99828.09
2022-08-02T18:37:28.935Z,99836.69
2022-08-02T18:40:51.109Z,99840.00
2022-08-02T18:43:54.515Z,99837.94
2022-08-02T18:46:57.879Z,99842.69
2022-08-02T18:50:01.908Z,99838.91
2022-08-02T18:53:05.571Z,99841.78
2022-08-02T18:56:20.313Z,99836.91
2022-08-02T18:59:27.659Z,99838.19
2022-08-02T19:02:39.818Z,99840.50
2022-08-02T19:05:53.347Z,99847.31
2022-08-02T19:09:11.198Z,99841.81
2022-08-02T19:12:26.000Z,99841.50
2022-08-02T19:15:31.372Z,99843.63
2022-08-02T19:18:35.408Z,99841.50
2022-08-02T19:22:17.525Z,99851.25
2022-08-02T19:25:02.604Z,99848.19
2022-08-02T19:28:06.592Z,99845.94
2022-08-02T19:31:11.933Z,99851.69
2022-08-02T19:34:15.106Z,99845.59
2022-08-02T19:37:19.670Z,99845.03
2022-08-02T19:40:28.878Z,99836.03
2022-08-02T19:44:23.586Z,99847.00
2022-08-02T19:44:32.735Z,99749.44
2022-08-02T19:46:55.037Z,99850.38
2022-08-02T19:49:59.324Z,99852.44
2022-08-02T19:53:05.270Z,99849.28
2022-08-02T19:56:11.041Z,99843.50
2022-08-02T19:59:15.995Z,99835.72
2022-08-02T20:02:19.471Z,99838.19
2022-08-02T20:05:24.062Z,99840.09
2022-08-02T20:08:31.900Z,99842.88
2022-08-02T20:11:39.387Z,99849.50
2022-08-02T20:14:50.648Z,99845.81
2022-08-02T20:17:54.602Z,99852.75
2022-08-02T20:20:58.104Z,99849.81
2022-08-02T20:24:01.333Z,99854.59
2022-08-02T20:27:04.623Z,99853.22
2022-08-02T20:30:08.934Z,99864.16
2022-08-02T20:33:21.840Z,99869.19
2022-08-02T20:36:27.337Z,99860.91
2022-08-02T20:39:43.690Z,99862.09
2022-08-02T20:42:47.975Z,99857.59
2022-08-02T20:45:51.384Z,99854.69
2022-08-02T20:48:57.502Z,99851.41
2022-08-02T20:52:04.382Z,99864.63
2022-08-02T20:55:31.269Z,99867.09
2022-08-02T20:58:34.433Z,99864.63
2022-08-02T21:01:39.480Z,99864.78
2022-08-02T21:05:00.538Z,99866.31
2022-08-02T21:08:14.878Z,99857.97
2022-08-02T21:11:18.079Z,99859.13
2022-08-02T21:14:21.426Z,99859.66
2022-08-02T21:17:36.807Z,99860.00
2022-08-02T21:20:48.116Z,99861.84
2022-08-02T21:23:54.459Z,99858.63
2022-08-02T21:26:57.987Z,99850.22
2022-08-02T21:30:01.356Z,99855.38
2022-08-02T21:33:04.491Z,99851.66
2022-08-02T21:36:20.810Z,99858.66
2022-08-02T21:39:24.184Z,99852.19
2022-08-02T21:42:27.115Z,99852.12
2022-08-02T21:45:30.962Z,99856.22
2022-08-02T21:48:35.138Z,99853.25
2022-08-02T21:51:43.068Z,99856.03
2022-08-02T21:54:46.976Z,99861.91
2022-08-02T21:57:51.700Z,99861.41
2022-08-02T22:00:54.486Z,99863.50
2022-08-02T22:03:58.747Z,99869.91
2022-08-02T22:07:01.918Z,99876.31
2022-08-02T22:10:06.253Z,99875.00
2022-08-02T22:13:14.507Z,99882.31
2022-08-02T22:16:19.503Z,99883.34
2022-08-02T22:19:22.892Z,99886.09
2022-08-02T22:22:28.026Z,99884.16
2022-08-02T22:25:37.357Z,99890.56
2022-08-02T22:28:52.875Z,99883.25
2022-08-02T22:32:02.878Z,99884.25
2022-08-02T22:35:08.685Z,99889.69
2022-08-02T22:38:17.452Z,99883.50
2022-08-02T22:41:22.638Z,99882.28
2022-08-02T22:44:25.476Z,99883.72
2022-08-02T22:47:28.531Z,99882.28
2022-08-02T22:50:41.407Z,99883.84
2022-08-02T22:53:45.136Z,99882.97
2022-08-02T22:56:48.265Z,99881.94
2022-08-02T22:59:51.659Z,99889.31
2022-08-02T23:02:54.504Z,99877.84
2022-08-02T23:05:57.728Z,99885.34
2022-08-02T23:09:01.541Z,99885.34
2022-08-02T23:12:05.023Z,99881.28
2022-08-02T23:15:08.841Z,99887.44
2022-08-02T23:18:30.869Z,99883.22
2022-08-02T23:21:46.161Z,99885.19
2022-08-02T23:24:57.845Z,99885.59
2022-08-02T23:28:01.559Z,99890.44
2022-08-02T23:31:30.528Z,99884.47
2022-08-02T23:34:33.321Z,99895.94
2022-08-02T23:37:58.325Z,99887.22
2022-08-02T23:41:04.170Z,99896.38
2022-08-02T23:44:15.214Z,99892.09
2022-08-02T23:47:19.016Z,99890.97
2022-08-02T23:50:22.227Z,99883.47
2022-08-02T23:53:25.111Z,99886.56
2022-08-02T23:56:28.172Z,99893.19
2022-08-02T23:59:30.957Z,99886.47
